sensor_id;sensor_type;location;lat;lon;timestamp;temperature;humidity
39665;DHT22;26679;50.872;4.332;2023-06-22T00:01:02;23.70;91.30
39665;DHT22;26679;50.872;4.332;2023-06-22T00:03:28;23.70;91.20
39665;DHT22;26679;50.872;4.332;2023-06-22T00:05:53;23.70;91.10
39665;DHT22;26679;50.872;4.332;2023-06-22T00:08:19;23.70;91.00
39665;DHT22;26679;50.872;4.332;2023-06-22T00:10:45;23.70;90.80
39665;DHT22;26679;50.872;4.332;2023-06-22T00:13:10;23.70;90.80
39665;DHT22;26679;50.872;4.332;2023-06-22T00:15:36;23.70;90.90
39665;DHT22;26679;50.872;4.332;2023-06-22T00:18:03;23.60;91.00
39665;DHT22;26679;50.872;4.332;2023-06-22T00:20:28;23.70;91.20
39665;DHT22;26679;50.872;4.332;2023-06-22T00:22:55;23.70;91.30
39665;DHT22;26679;50.872;4.332;2023-06-22T00:25:20;23.70;91.20
39665;DHT22;26679;50.872;4.332;2023-06-22T00:27:47;23.80;91.10
39665;DHT22;26679;50.872;4.332;2023-06-22T00:30:12;23.80;91.30
39665;DHT22;26679;50.872;4.332;2023-06-22T00:32:38;23.60;91.40
39665;DHT22;26679;50.872;4.332;2023-06-22T00:35:04;23.60;91.50
39665;DHT22;26679;50.872;4.332;2023-06-22T00:37:29;23.60;91.50
39665;DHT22;26679;50.872;4.332;2023-06-22T00:39:55;23.50;91.30
39665;DHT22;26679;50.872;4.332;2023-06-22T00:42:21;23.40;91.60
39665;DHT22;26679;50.872;4.332;2023-06-22T00:44:46;23.40;91.70
39665;DHT22;26679;50.872;4.332;2023-06-22T00:47:13;23.40;91.80
39665;DHT22;26679;50.872;4.332;2023-06-22T00:49:40;23.30;91.90
39665;DHT22;26679;50.872;4.332;2023-06-22T00:52:06;23.40;92.10
39665;DHT22;26679;50.872;4.332;2023-06-22T00:54:39;23.50;92.00
39665;DHT22;26679;50.872;4.332;2023-06-22T00:57:05;23.50;91.90
39665;DHT22;26679;50.872;4.332;2023-06-22T00:59:31;23.60;92.00
39665;DHT22;26679;50.872;4.332;2023-06-22T01:01:57;23.30;92.20
39665;DHT22;26679;50.872;4.332;2023-06-22T01:04:24;23.10;92.50
39665;DHT22;26679;50.872;4.332;2023-06-22T01:07:02;22.90;92.80
39665;DHT22;26679;50.872;4.332;2023-06-22T01:09:31;22.90;92.90
39665;DHT22;26679;50.872;4.332;2023-06-22T01:12:00;22.80;93.10
39665;DHT22;26679;50.872;4.332;2023-06-22T01:17:03;22.90;93.20
39665;DHT22;26679;50.872;4.332;2023-06-22T01:22:07;22.90;93.30
39665;DHT22;26679;50.872;4.332;2023-06-22T01:29:42;22.90;93.50
39665;DHT22;26679;50.872;4.332;2023-06-22T01:32:08;22.80;93.60
39665;DHT22;26679;50.872;4.332;2023-06-22T01:34:36;22.80;93.70
39665;DHT22;26679;50.872;4.332;2023-06-22T01:37:02;22.80;93.70
39665;DHT22;26679;50.872;4.332;2023-06-22T01:39:28;22.80;93.90
39665;DHT22;26679;50.872;4.332;2023-06-22T01:41:54;22.90;93.90
39665;DHT22;26679;50.872;4.332;2023-06-22T01:44:20;22.80;93.90
39665;DHT22;26679;50.872;4.332;2023-06-22T01:46:46;22.80;94.00
39665;DHT22;26679;50.872;4.332;2023-06-22T01:49:13;22.80;94.10
39665;DHT22;26679;50.872;4.332;2023-06-22T01:51:39;22.80;94.20
39665;DHT22;26679;50.872;4.332;2023-06-22T01:54:06;22.80;94.20
39665;DHT22;26679;50.872;4.332;2023-06-22T01:56:31;22.80;94.20
39665;DHT22;26679;50.872;4.332;2023-06-22T01:59:02;22.80;94.30
39665;DHT22;26679;50.872;4.332;2023-06-22T02:01:31;22.70;94.30
39665;DHT22;26679;50.872;4.332;2023-06-22T02:04:02;22.70;94.50
39665;DHT22;26679;50.872;4.332;2023-06-22T02:06:36;22.80;94.40
39665;DHT22;26679;50.872;4.332;2023-06-22T02:09:06;22.80;94.30
39665;DHT22;26679;50.872;4.332;2023-06-22T02:11:32;22.80;94.40
39665;DHT22;26679;50.872;4.332;2023-06-22T02:13:58;22.80;94.30
39665;DHT22;26679;50.872;4.332;2023-06-22T02:16:25;22.80;94.30
39665;DHT22;26679;50.872;4.332;2023-06-22T02:18:50;22.60;94.30
39665;DHT22;26679;50.872;4.332;2023-06-22T02:21:19;22.50;94.30
39665;DHT22;26679;50.872;4.332;2023-06-22T02:23:45;22.40;94.50
39665;DHT22;26679;50.872;4.332;2023-06-22T02:26:11;22.30;94.40
39665;DHT22;26679;50.872;4.332;2023-06-22T02:28:37;22.30;94.70
39665;DHT22;26679;50.872;4.332;2023-06-22T02:31:02;22.40;94.50
39665;DHT22;26679;50.872;4.332;2023-06-22T02:33:28;22.40;94.40
39665;DHT22;26679;50.872;4.332;2023-06-22T02:35:53;22.40;94.30
39665;DHT22;26679;50.872;4.332;2023-06-22T02:38:19;22.50;94.30
39665;DHT22;26679;50.872;4.332;2023-06-22T02:40:45;22.50;94.30
39665;DHT22;26679;50.872;4.332;2023-06-22T02:43:10;22.40;94.40
39665;DHT22;26679;50.872;4.332;2023-06-22T02:45:36;22.50;94.40
39665;DHT22;26679;50.872;4.332;2023-06-22T02:48:01;22.40;94.40
39665;DHT22;26679;50.872;4.332;2023-06-22T02:50:27;22.40;94.50
39665;DHT22;26679;50.872;4.332;2023-06-22T02:52:52;22.40;94.60
39665;DHT22;26679;50.872;4.332;2023-06-22T02:55:18;22.30;94.60
39665;DHT22;26679;50.872;4.332;2023-06-22T02:57:43;22.30;94.60
39665;DHT22;26679;50.872;4.332;2023-06-22T03:00:11;22.30;94.60
39665;DHT22;26679;50.872;4.332;2023-06-22T03:02:43;22.20;94.80
39665;DHT22;26679;50.872;4.332;2023-06-22T03:05:09;22.10;94.80
39665;DHT22;26679;50.872;4.332;2023-06-22T03:07:41;22.10;94.90
39665;DHT22;26679;50.872;4.332;2023-06-22T03:10:10;22.10;94.90
39665;DHT22;26679;50.872;4.332;2023-06-22T03:12:39;22.10;95.00
39665;DHT22;26679;50.872;4.332;2023-06-22T03:15:08;22.10;95.10
39665;DHT22;26679;50.872;4.332;2023-06-22T03:17:35;22.00;95.20
39665;DHT22;26679;50.872;4.332;2023-06-22T03:20:03;22.00;95.30
39665;DHT22;26679;50.872;4.332;2023-06-22T03:22:40;22.00;95.30
39665;DHT22;26679;50.872;4.332;2023-06-22T03:25:06;22.00;95.40
39665;DHT22;26679;50.872;4.332;2023-06-22T03:27:41;22.00;95.30
39665;DHT22;26679;50.872;4.332;2023-06-22T03:30:07;22.10;95.30
39665;DHT22;26679;50.872;4.332;2023-06-22T03:32:33;22.20;95.40
39665;DHT22;26679;50.872;4.332;2023-06-22T03:34:59;22.30;95.30
39665;DHT22;26679;50.872;4.332;2023-06-22T03:37:25;22.30;95.10
39665;DHT22;26679;50.872;4.332;2023-06-22T03:39:51;22.40;94.80
39665;DHT22;26679;50.872;4.332;2023-06-22T03:42:16;22.40;94.80
39665;DHT22;26679;50.872;4.332;2023-06-22T03:44:42;22.30;94.90
39665;DHT22;26679;50.872;4.332;2023-06-22T03:47:07;22.20;94.90
39665;DHT22;26679;50.872;4.332;2023-06-22T03:49:33;22.20;95.10
39665;DHT22;26679;50.872;4.332;2023-06-22T03:51:59;22.20;95.10
39665;DHT22;26679;50.872;4.332;2023-06-22T03:54:26;21.90;95.40
39665;DHT22;26679;50.872;4.332;2023-06-22T03:56:51;21.80;95.80
39665;DHT22;26679;50.872;4.332;2023-06-22T03:59:17;21.80;96.00
39665;DHT22;26679;50.872;4.332;2023-06-22T04:01:43;21.70;96.10
39665;DHT22;26679;50.872;4.332;2023-06-22T04:04:08;21.90;96.20
39665;DHT22;26679;50.872;4.332;2023-06-22T04:06:34;22.00;96.00
39665;DHT22;26679;50.872;4.332;2023-06-22T04:08:59;22.10;95.90
39665;DHT22;26679;50.872;4.332;2023-06-22T04:11:26;22.20;95.90
39665;DHT22;26679;50.872;4.332;2023-06-22T04:13:52;22.20;95.80
39665;DHT22;26679;50.872;4.332;2023-06-22T04:16:17;22.30;95.90
39665;DHT22;26679;50.872;4.332;2023-06-22T04:18:42;22.20;95.90
39665;DHT22;26679;50.872;4.332;2023-06-22T04:21:09;22.20;96.00
39665;DHT22;26679;50.872;4.332;2023-06-22T04:23:35;22.20;96.10
39665;DHT22;26679;50.872;4.332;2023-06-22T04:26:00;22.30;96.20
39665;DHT22;26679;50.872;4.332;2023-06-22T04:28:25;22.20;96.30
39665;DHT22;26679;50.872;4.332;2023-06-22T04:30:51;22.20;96.30
39665;DHT22;26679;50.872;4.332;2023-06-22T04:33:17;22.30;96.40
39665;DHT22;26679;50.872;4.332;2023-06-22T04:35:44;22.40;96.40
39665;DHT22;26679;50.872;4.332;2023-06-22T04:38:11;22.40;96.30
39665;DHT22;26679;50.872;4.332;2023-06-22T04:40:38;22.40;96.30
39665;DHT22;26679;50.872;4.332;2023-06-22T04:43:04;22.20;96.70
39665;DHT22;26679;50.872;4.332;2023-06-22T04:45:31;22.20;97.00
39665;DHT22;26679;50.872;4.332;2023-06-22T04:47:57;22.20;96.90
39665;DHT22;26679;50.872;4.332;2023-06-22T04:50:22;22.00;97.30
39665;DHT22;26679;50.872;4.332;2023-06-22T04:52:49;21.90;97.60
39665;DHT22;26679;50.872;4.332;2023-06-22T04:55:14;21.90;97.90
39665;DHT22;26679;50.872;4.332;2023-06-22T04:57:46;22.00;97.80
39665;DHT22;26679;50.872;4.332;2023-06-22T05:00:17;22.20;97.80
39665;DHT22;26679;50.872;4.332;2023-06-22T05:02:44;22.40;97.60
39665;DHT22;26679;50.872;4.332;2023-06-22T05:05:10;22.40;97.50
39665;DHT22;26679;50.872;4.332;2023-06-22T05:07:42;22.50;97.60
39665;DHT22;26679;50.872;4.332;2023-06-22T05:10:09;22.60;97.60
39665;DHT22;26679;50.872;4.332;2023-06-22T05:12:35;22.50;97.80
39665;DHT22;26679;50.872;4.332;2023-06-22T05:15:01;22.50;97.40
39665;DHT22;26679;50.872;4.332;2023-06-22T05:17:27;22.60;97.50
39665;DHT22;26679;50.872;4.332;2023-06-22T05:19:52;22.40;98.20
39665;DHT22;26679;50.872;4.332;2023-06-22T05:22:18;22.00;99.30
39665;DHT22;26679;50.872;4.332;2023-06-22T05:24:44;21.50;99.90
39665;DHT22;26679;50.872;4.332;2023-06-22T05:27:10;21.10;99.90
39665;DHT22;26679;50.872;4.332;2023-06-22T05:29:36;21.00;99.90
39665;DHT22;26679;50.872;4.332;2023-06-22T05:32:01;21.00;99.90
39665;DHT22;26679;50.872;4.332;2023-06-22T05:34:27;21.00;99.90
39665;DHT22;26679;50.872;4.332;2023-06-22T05:36:52;21.00;99.90
39665;DHT22;26679;50.872;4.332;2023-06-22T05:39:18;21.00;99.90
39665;DHT22;26679;50.872;4.332;2023-06-22T05:41:44;21.00;99.90
39665;DHT22;26679;50.872;4.332;2023-06-22T05:44:10;21.10;99.90
39665;DHT22;26679;50.872;4.332;2023-06-22T05:46:36;21.10;99.90
39665;DHT22;26679;50.872;4.332;2023-06-22T05:49:01;21.00;99.90
39665;DHT22;26679;50.872;4.332;2023-06-22T05:51:27;21.10;99.90
39665;DHT22;26679;50.872;4.332;2023-06-22T05:53:52;21.00;99.90
39665;DHT22;26679;50.872;4.332;2023-06-22T05:56:18;21.10;99.90
39665;DHT22;26679;50.872;4.332;2023-06-22T05:58:43;21.00;99.90
39665;DHT22;26679;50.872;4.332;2023-06-22T06:01:09;21.00;99.90
39665;DHT22;26679;50.872;4.332;2023-06-22T06:03:35;20.90;99.90
39665;DHT22;26679;50.872;4.332;2023-06-22T06:06:09;20.80;99.90
39665;DHT22;26679;50.872;4.332;2023-06-22T06:08:36;20.50;99.90
39665;DHT22;26679;50.872;4.332;2023-06-22T06:11:02;20.40;99.90
39665;DHT22;26679;50.872;4.332;2023-06-22T06:13:27;20.50;99.90
39665;DHT22;26679;50.872;4.332;2023-06-22T06:15:53;20.60;99.90
39665;DHT22;26679;50.872;4.332;2023-06-22T06:18:20;20.60;99.90
39665;DHT22;26679;50.872;4.332;2023-06-22T06:20:46;20.70;99.90
39665;DHT22;26679;50.872;4.332;2023-06-22T06:23:11;20.80;99.90
39665;DHT22;26679;50.872;4.332;2023-06-22T06:25:37;21.00;99.90
39665;DHT22;26679;50.872;4.332;2023-06-22T06:28:02;21.30;99.90
39665;DHT22;26679;50.872;4.332;2023-06-22T06:30:28;21.50;99.90
39665;DHT22;26679;50.872;4.332;2023-06-22T06:32:54;21.60;99.90
39665;DHT22;26679;50.872;4.332;2023-06-22T06:35:19;21.80;99.90
39665;DHT22;26679;50.872;4.332;2023-06-22T06:37:47;22.00;99.90
39665;DHT22;26679;50.872;4.332;2023-06-22T06:40:13;22.10;99.90
39665;DHT22;26679;50.872;4.332;2023-06-22T06:42:39;22.10;99.90
39665;DHT22;26679;50.872;4.332;2023-06-22T06:45:14;22.00;99.90
39665;DHT22;26679;50.872;4.332;2023-06-22T06:47:40;21.80;99.90
39665;DHT22;26679;50.872;4.332;2023-06-22T06:50:06;21.60;99.90
39665;DHT22;26679;50.872;4.332;2023-06-22T06:52:31;21.40;99.90
39665;DHT22;26679;50.872;4.332;2023-06-22T06:54:57;21.30;99.90
39665;DHT22;26679;50.872;4.332;2023-06-22T06:57:23;21.50;99.90
39665;DHT22;26679;50.872;4.332;2023-06-22T06:59:49;21.90;99.90
39665;DHT22;26679;50.872;4.332;2023-06-22T07:02:15;22.10;99.90
39665;DHT22;26679;50.872;4.332;2023-06-22T07:04:40;22.10;99.90
39665;DHT22;26679;50.872;4.332;2023-06-22T07:07:06;21.90;99.90
39665;DHT22;26679;50.872;4.332;2023-06-22T07:09:32;22.00;99.90
39665;DHT22;26679;50.872;4.332;2023-06-22T07:11:58;22.10;99.90
39665;DHT22;26679;50.872;4.332;2023-06-22T07:14:23;21.90;99.90
39665;DHT22;26679;50.872;4.332;2023-06-22T07:16:49;21.80;99.90
39665;DHT22;26679;50.872;4.332;2023-06-22T07:19:14;22.00;99.90
39665;DHT22;26679;50.872;4.332;2023-06-22T07:21:40;22.10;99.90
39665;DHT22;26679;50.872;4.332;2023-06-22T07:24:06;22.20;99.90
39665;DHT22;26679;50.872;4.332;2023-06-22T07:26:32;22.50;99.90
39665;DHT22;26679;50.872;4.332;2023-06-22T07:28:57;22.80;99.90
39665;DHT22;26679;50.872;4.332;2023-06-22T07:31:24;23.00;99.90
39665;DHT22;26679;50.872;4.332;2023-06-22T07:33:49;23.00;99.90
39665;DHT22;26679;50.872;4.332;2023-06-22T07:36:16;23.10;99.90
39665;DHT22;26679;50.872;4.332;2023-06-22T07:38:42;23.10;99.90
39665;DHT22;26679;50.872;4.332;2023-06-22T07:41:08;22.80;99.90
39665;DHT22;26679;50.872;4.332;2023-06-22T07:43:33;22.50;99.90
39665;DHT22;26679;50.872;4.332;2023-06-22T07:46:05;22.60;99.90
39665;DHT22;26679;50.872;4.332;2023-06-22T07:48:30;22.80;99.90
39665;DHT22;26679;50.872;4.332;2023-06-22T07:50:56;22.90;99.90
39665;DHT22;26679;50.872;4.332;2023-06-22T07:53:22;23.10;99.90
39665;DHT22;26679;50.872;4.332;2023-06-22T07:55:48;22.90;99.90
39665;DHT22;26679;50.872;4.332;2023-06-22T07:58:14;22.70;99.90
39665;DHT22;26679;50.872;4.332;2023-06-22T08:00:40;22.80;99.90
39665;DHT22;26679;50.872;4.332;2023-06-22T08:03:06;22.90;99.90
39665;DHT22;26679;50.872;4.332;2023-06-22T08:05:32;23.00;99.90
39665;DHT22;26679;50.872;4.332;2023-06-22T08:07:57;23.20;99.90
39665;DHT22;26679;50.872;4.332;2023-06-22T08:10:23;23.30;99.90
39665;DHT22;26679;50.872;4.332;2023-06-22T08:12:49;23.40;99.90
39665;DHT22;26679;50.872;4.332;2023-06-22T08:15:14;23.40;99.90
39665;DHT22;26679;50.872;4.332;2023-06-22T08:17:40;23.30;99.90
39665;DHT22;26679;50.872;4.332;2023-06-22T08:20:06;23.30;99.90
39665;DHT22;26679;50.872;4.332;2023-06-22T08:22:35;23.30;99.90
39665;DHT22;26679;50.872;4.332;2023-06-22T08:25:02;23.10;99.90
39665;DHT22;26679;50.872;4.332;2023-06-22T08:27:29;23.00;99.90
39665;DHT22;26679;50.872;4.332;2023-06-22T08:29:57;23.00;99.90
39665;DHT22;26679;50.872;4.332;2023-06-22T08:32:27;23.10;99.90
39665;DHT22;26679;50.872;4.332;2023-06-22T08:34:53;22.90;99.90
39665;DHT22;26679;50.872;4.332;2023-06-22T08:37:19;22.70;99.90
39665;DHT22;26679;50.872;4.332;2023-06-22T08:39:45;22.80;99.90
39665;DHT22;26679;50.872;4.332;2023-06-22T08:42:10;23.00;99.90
39665;DHT22;26679;50.872;4.332;2023-06-22T08:44:37;23.00;99.90
39665;DHT22;26679;50.872;4.332;2023-06-22T08:47:02;22.90;99.90
39665;DHT22;26679;50.872;4.332;2023-06-22T08:49:28;22.80;99.90
39665;DHT22;26679;50.872;4.332;2023-06-22T08:51:54;22.80;99.90
39665;DHT22;26679;50.872;4.332;2023-06-22T08:54:22;22.90;99.90
39665;DHT22;26679;50.872;4.332;2023-06-22T08:56:47;22.90;99.90
39665;DHT22;26679;50.872;4.332;2023-06-22T08:59:13;22.90;99.90
39665;DHT22;26679;50.872;4.332;2023-06-22T09:01:39;22.90;99.90
39665;DHT22;26679;50.872;4.332;2023-06-22T09:04:05;23.00;99.90
39665;DHT22;26679;50.872;4.332;2023-06-22T09:06:32;23.00;99.90
39665;DHT22;26679;50.872;4.332;2023-06-22T09:08:58;23.10;99.90
39665;DHT22;26679;50.872;4.332;2023-06-22T09:11:26;23.20;99.90
39665;DHT22;26679;50.872;4.332;2023-06-22T09:13:51;23.20;99.90
39665;DHT22;26679;50.872;4.332;2023-06-22T09:16:18;22.90;99.90
39665;DHT22;26679;50.872;4.332;2023-06-22T09:18:48;22.70;99.90
39665;DHT22;26679;50.872;4.332;2023-06-22T09:21:14;22.70;99.90
39665;DHT22;26679;50.872;4.332;2023-06-22T09:23:39;22.80;99.90
39665;DHT22;26679;50.872;4.332;2023-06-22T09:26:06;22.70;99.90
39665;DHT22;26679;50.872;4.332;2023-06-22T09:28:32;22.50;99.90
39665;DHT22;26679;50.872;4.332;2023-06-22T09:30:58;22.60;99.90
39665;DHT22;26679;50.872;4.332;2023-06-22T09:33:27;22.40;99.90
39665;DHT22;26679;50.872;4.332;2023-06-22T09:35:53;22.00;99.90
39665;DHT22;26679;50.872;4.332;2023-06-22T09:38:19;21.50;99.90
39665;DHT22;26679;50.872;4.332;2023-06-22T09:40:44;21.40;99.90
39665;DHT22;26679;50.872;4.332;2023-06-22T09:43:10;21.30;99.90
39665;DHT22;26679;50.872;4.332;2023-06-22T09:45:39;21.20;99.90
39665;DHT22;26679;50.872;4.332;2023-06-22T09:48:04;21.10;99.90
39665;DHT22;26679;50.872;4.332;2023-06-22T09:50:30;20.80;99.90
39665;DHT22;26679;50.872;4.332;2023-06-22T09:52:55;20.60;99.90
39665;DHT22;26679;50.872;4.332;2023-06-22T09:55:21;20.60;99.90
39665;DHT22;26679;50.872;4.332;2023-06-22T09:57:47;20.60;99.90
39665;DHT22;26679;50.872;4.332;2023-06-22T10:00:13;20.40;99.90
39665;DHT22;26679;50.872;4.332;2023-06-22T10:02:39;20.20;99.90
39665;DHT22;26679;50.872;4.332;2023-06-22T10:05:05;20.20;99.90
39665;DHT22;26679;50.872;4.332;2023-06-22T10:07:31;20.30;99.90
39665;DHT22;26679;50.872;4.332;2023-06-22T10:09:56;20.30;99.90
39665;DHT22;26679;50.872;4.332;2023-06-22T10:12:22;20.40;99.90
39665;DHT22;26679;50.872;4.332;2023-06-22T10:14:47;20.30;99.90
39665;DHT22;26679;50.872;4.332;2023-06-22T10:17:13;20.30;99.90
39665;DHT22;26679;50.872;4.332;2023-06-22T10:19:38;20.30;99.90
39665;DHT22;26679;50.872;4.332;2023-06-22T10:22:04;20.20;99.90
39665;DHT22;26679;50.872;4.332;2023-06-22T10:24:30;20.20;99.90
39665;DHT22;26679;50.872;4.332;2023-06-22T10:26:55;20.10;99.90
39665;DHT22;26679;50.872;4.332;2023-06-22T10:29:21;19.90;99.90
39665;DHT22;26679;50.872;4.332;2023-06-22T10:31:47;19.90;99.90
39665;DHT22;26679;50.872;4.332;2023-06-22T10:34:12;19.70;99.90
39665;DHT22;26679;50.872;4.332;2023-06-22T10:36:38;19.50;99.90
39665;DHT22;26679;50.872;4.332;2023-06-22T10:39:03;19.50;99.90
39665;DHT22;26679;50.872;4.332;2023-06-22T10:41:29;19.50;99.90
39665;DHT22;26679;50.872;4.332;2023-06-22T10:43:56;19.40;99.90
39665;DHT22;26679;50.872;4.332;2023-06-22T10:46:23;19.30;99.90
39665;DHT22;26679;50.872;4.332;2023-06-22T10:48:49;19.30;99.90
39665;DHT22;26679;50.872;4.332;2023-06-22T10:51:15;19.30;99.90
39665;DHT22;26679;50.872;4.332;2023-06-22T10:53:40;19.30;99.90
39665;DHT22;26679;50.872;4.332;2023-06-22T10:56:06;19.30;99.90
39665;DHT22;26679;50.872;4.332;2023-06-22T10:58:31;19.20;99.90
39665;DHT22;26679;50.872;4.332;2023-06-22T11:00:57;19.30;99.90
39665;DHT22;26679;50.872;4.332;2023-06-22T11:03:24;19.40;99.90
39665;DHT22;26679;50.872;4.332;2023-06-22T11:05:49;19.60;99.90
39665;DHT22;26679;50.872;4.332;2023-06-22T11:08:15;19.60;99.90
39665;DHT22;26679;50.872;4.332;2023-06-22T11:10:40;19.60;99.90
39665;DHT22;26679;50.872;4.332;2023-06-22T11:13:09;19.50;99.90
39665;DHT22;26679;50.872;4.332;2023-06-22T11:15:35;19.60;99.90
39665;DHT22;26679;50.872;4.332;2023-06-22T11:18:00;19.70;99.90
39665;DHT22;26679;50.872;4.332;2023-06-22T11:20:26;19.80;99.90
39665;DHT22;26679;50.872;4.332;2023-06-22T11:22:51;19.90;99.90
39665;DHT22;26679;50.872;4.332;2023-06-22T11:25:17;19.90;99.90
39665;DHT22;26679;50.872;4.332;2023-06-22T11:27:42;19.90;99.90
39665;DHT22;26679;50.872;4.332;2023-06-22T11:30:08;19.70;99.90
39665;DHT22;26679;50.872;4.332;2023-06-22T11:32:34;20.00;99.90
39665;DHT22;26679;50.872;4.332;2023-06-22T11:35:00;20.20;99.90
39665;DHT22;26679;50.872;4.332;2023-06-22T11:37:25;20.00;99.90
39665;DHT22;26679;50.872;4.332;2023-06-22T11:39:51;20.10;99.90
39665;DHT22;26679;50.872;4.332;2023-06-22T11:42:17;20.00;99.90
39665;DHT22;26679;50.872;4.332;2023-06-22T11:44:42;20.00;99.90
39665;DHT22;26679;50.872;4.332;2023-06-22T11:47:09;20.10;99.90
39665;DHT22;26679;50.872;4.332;2023-06-22T11:49:34;20.10;99.90
39665;DHT22;26679;50.872;4.332;2023-06-22T11:52:00;19.90;99.90
39665;DHT22;26679;50.872;4.332;2023-06-22T11:54:25;19.70;99.90
39665;DHT22;26679;50.872;4.332;2023-06-22T11:56:51;19.60;99.90
39665;DHT22;26679;50.872;4.332;2023-06-22T11:59:16;19.50;99.90
39665;DHT22;26679;50.872;4.332;2023-06-22T12:01:42;19.40;99.90
39665;DHT22;26679;50.872;4.332;2023-06-22T12:04:07;19.30;99.90
39665;DHT22;26679;50.872;4.332;2023-06-22T12:06:37;19.30;99.90
39665;DHT22;26679;50.872;4.332;2023-06-22T12:09:03;19.50;99.90
39665;DHT22;26679;50.872;4.332;2023-06-22T12:11:30;19.70;99.90
39665;DHT22;26679;50.872;4.332;2023-06-22T12:13:55;19.70;99.90
39665;DHT22;26679;50.872;4.332;2023-06-22T12:16:21;19.80;99.90
39665;DHT22;26679;50.872;4.332;2023-06-22T12:18:47;19.70;99.90
39665;DHT22;26679;50.872;4.332;2023-06-22T12:21:15;19.70;99.90
39665;DHT22;26679;50.872;4.332;2023-06-22T12:23:41;19.70;99.90
39665;DHT22;26679;50.872;4.332;2023-06-22T12:26:06;19.70;99.90
39665;DHT22;26679;50.872;4.332;2023-06-22T12:28:32;19.70;99.90
39665;DHT22;26679;50.872;4.332;2023-06-22T12:30:57;19.60;99.90
39665;DHT22;26679;50.872;4.332;2023-06-22T12:33:23;19.60;99.90
39665;DHT22;26679;50.872;4.332;2023-06-22T12:35:48;19.70;99.90
39665;DHT22;26679;50.872;4.332;2023-06-22T12:38:14;19.70;99.90
39665;DHT22;26679;50.872;4.332;2023-06-22T12:40:39;19.70;99.90
39665;DHT22;26679;50.872;4.332;2023-06-22T12:43:05;19.70;99.90
39665;DHT22;26679;50.872;4.332;2023-06-22T12:45:31;19.70;99.90
39665;DHT22;26679;50.872;4.332;2023-06-22T12:47:58;19.70;99.90
39665;DHT22;26679;50.872;4.332;2023-06-22T12:50:25;19.60;99.90
39665;DHT22;26679;50.872;4.332;2023-06-22T12:52:50;19.60;99.90
39665;DHT22;26679;50.872;4.332;2023-06-22T12:55:16;19.70;99.90
39665;DHT22;26679;50.872;4.332;2023-06-22T12:57:41;19.60;99.90
39665;DHT22;26679;50.872;4.332;2023-06-22T13:00:07;19.60;99.90
39665;DHT22;26679;50.872;4.332;2023-06-22T13:02:35;19.60;99.90
39665;DHT22;26679;50.872;4.332;2023-06-22T13:05:02;19.60;99.90
39665;DHT22;26679;50.872;4.332;2023-06-22T13:07:27;19.80;99.90
39665;DHT22;26679;50.872;4.332;2023-06-22T13:09:53;19.80;99.90
39665;DHT22;26679;50.872;4.332;2023-06-22T13:12:21;19.80;99.90
39665;DHT22;26679;50.872;4.332;2023-06-22T13:14:47;19.80;99.90
39665;DHT22;26679;50.872;4.332;2023-06-22T13:17:13;19.80;99.90
39665;DHT22;26679;50.872;4.332;2023-06-22T13:19:39;19.80;99.90
39665;DHT22;26679;50.872;4.332;2023-06-22T13:22:05;19.80;99.90
39665;DHT22;26679;50.872;4.332;2023-06-22T13:24:30;19.80;99.90
39665;DHT22;26679;50.872;4.332;2023-06-22T13:26:56;19.70;99.90
39665;DHT22;26679;50.872;4.332;2023-06-22T13:29:21;19.70;99.90
39665;DHT22;26679;50.872;4.332;2023-06-22T13:31:47;19.70;99.90
39665;DHT22;26679;50.872;4.332;2023-06-22T13:34:12;19.70;99.90
39665;DHT22;26679;50.872;4.332;2023-06-22T13:36:38;19.60;99.90
39665;DHT22;26679;50.872;4.332;2023-06-22T13:39:03;19.60;99.90
39665;DHT22;26679;50.872;4.332;2023-06-22T13:41:29;19.60;99.90
39665;DHT22;26679;50.872;4.332;2023-06-22T13:43:55;19.50;99.90
39665;DHT22;26679;50.872;4.332;2023-06-22T13:46:20;19.40;99.90
39665;DHT22;26679;50.872;4.332;2023-06-22T13:48:46;19.40;99.90
39665;DHT22;26679;50.872;4.332;2023-06-22T13:51:11;19.50;99.90
39665;DHT22;26679;50.872;4.332;2023-06-22T13:53:37;19.50;99.90
39665;DHT22;26679;50.872;4.332;2023-06-22T13:56:03;19.40;99.90
39665;DHT22;26679;50.872;4.332;2023-06-22T13:58:28;19.30;99.90
39665;DHT22;26679;50.872;4.332;2023-06-22T14:00:54;19.30;99.90
39665;DHT22;26679;50.872;4.332;2023-06-22T14:03:19;19.30;99.90
39665;DHT22;26679;50.872;4.332;2023-06-22T14:05:45;19.20;99.90
39665;DHT22;26679;50.872;4.332;2023-06-22T14:08:11;19.20;99.90
39665;DHT22;26679;50.872;4.332;2023-06-22T14:10:36;19.20;99.90
39665;DHT22;26679;50.872;4.332;2023-06-22T14:13:02;19.10;99.90
39665;DHT22;26679;50.872;4.332;2023-06-22T14:15:31;19.00;99.90
39665;DHT22;26679;50.872;4.332;2023-06-22T14:17:56;19.00;99.90
39665;DHT22;26679;50.872;4.332;2023-06-22T14:20:22;19.10;99.90
39665;DHT22;26679;50.872;4.332;2023-06-22T14:22:47;19.20;99.90
39665;DHT22;26679;50.872;4.332;2023-06-22T14:25:13;19.20;99.90
39665;DHT22;26679;50.872;4.332;2023-06-22T14:27:38;19.20;99.90
39665;DHT22;26679;50.872;4.332;2023-06-22T14:30:04;19.30;99.90
39665;DHT22;26679;50.872;4.332;2023-06-22T14:32:29;19.30;99.90
39665;DHT22;26679;50.872;4.332;2023-06-22T14:34:55;19.30;99.90
39665;DHT22;26679;50.872;4.332;2023-06-22T14:37:21;20.00;99.90
39665;DHT22;26679;50.872;4.332;2023-06-22T14:39:46;19.20;99.90
39665;DHT22;26679;50.872;4.332;2023-06-22T14:42:12;19.20;99.90
39665;DHT22;26679;50.872;4.332;2023-06-22T14:44:37;19.20;99.90
39665;DHT22;26679;50.872;4.332;2023-06-22T14:47:03;19.30;99.90
39665;DHT22;26679;50.872;4.332;2023-06-22T14:49:28;19.30;99.90
39665;DHT22;26679;50.872;4.332;2023-06-22T14:51:54;19.30;99.90
39665;DHT22;26679;50.872;4.332;2023-06-22T14:54:19;19.40;99.90
39665;DHT22;26679;50.872;4.332;2023-06-22T14:56:45;19.40;99.90
39665;DHT22;26679;50.872;4.332;2023-06-22T14:59:10;19.50;99.90
39665;DHT22;26679;50.872;4.332;2023-06-22T15:01:36;19.60;99.90
39665;DHT22;26679;50.872;4.332;2023-06-22T15:04:02;19.60;99.90
39665;DHT22;26679;50.872;4.332;2023-06-22T15:06:27;19.70;99.90
39665;DHT22;26679;50.872;4.332;2023-06-22T15:08:53;19.60;99.90
39665;DHT22;26679;50.872;4.332;2023-06-22T15:11:18;19.70;99.90
39665;DHT22;26679;50.872;4.332;2023-06-22T15:13:44;19.70;99.90
39665;DHT22;26679;50.872;4.332;2023-06-22T15:16:09;19.70;99.90
39665;DHT22;26679;50.872;4.332;2023-06-22T15:18:35;19.70;99.90
39665;DHT22;26679;50.872;4.332;2023-06-22T15:21:02;19.60;99.90
39665;DHT22;26679;50.872;4.332;2023-06-22T15:23:28;19.70;99.90
39665;DHT22;26679;50.872;4.332;2023-06-22T15:25:54;19.70;99.90
39665;DHT22;26679;50.872;4.332;2023-06-22T15:28:20;19.70;99.90
39665;DHT22;26679;50.872;4.332;2023-06-22T15:30:47;19.80;99.90
39665;DHT22;26679;50.872;4.332;2023-06-22T15:33:13;19.80;99.90